^^

Nearby METAR Reports

METAR (Meteorological Aerodrome Report) are Airport generated local weather condition reports for use, predominantly by pilots, these reports are also used as part of compliment of data sets required for Chatteris Weathers prediction software - WxSim.

EGUN - Mildenhall Raf, United Kingdom
Distance from station: ESE 19mi, 31km
Updated: 20/06/2018 05:56
Clear
Clear
 Wind from SSW
Wind: SSW 5 mph , 7 km/h
Temperature: 16°C
Dew Point: 16°C
Humidity: 100%
Barometer: 1019 hPa
Clouds: Clear
Visibility: 6 miles , 10 km
2018/06/20 04:56 EGUN 200456Z AUTO 20004KT 9999 CLR 16/16 A3009 RMK AO2 SLP192 T01630163 $
EGSC - Cambridge, United Kingdom
Distance from station: SSE 20mi, 32km
Updated: 19/06/2018 17:50
NOT Current
Mostly cloudy
Mostly cloudy
 Wind from WSW
Wind: WSW 14 mph , 22 km/h
Temperature: 23°C
Dew Point: 15°C
Humidity: 61%
Barometer: 1021 hPa
Clouds: Mostly cloudy
Visibility: 6 miles , 10 km
Cloud details: Few Clouds 1219 m
Mostly cloudy 1372 m
2018/06/19 16:50 EGSC 191650Z 25012KT 9999 FEW040 BKN045 23/15 Q1021
 
EGUL - Lakenheath Raf, United Kingdom
Distance from station: E 22mi, 36km
Updated: 20/06/2018 06:28
Mostly cloudy
Mostly cloudy
 Wind from SSW
Wind: SSW 7 mph , 11 km/h
Temperature: 17°C
Dew Point: 15°C
Humidity: 88%
Barometer: 1019 hPa
Clouds: Mostly cloudy
Visibility: 6 miles , 10 km
Cloud details: Mostly cloudy 610 m
2018/06/20 05:28 EGUL 200528Z AUTO 21006KT 9999 BKN020 17/15 A3009 RMK AO2 BKN V FEW SLP192 $
EGXT - Wittering Raf, United Kingdom
Distance from station: WNW 24mi, 38km
Updated: 20/06/2018 05:50
Partly cloudy
Partly cloudy
 Wind from WSW
Wind: WSW 15 mph , 24 km/h
Temperature: 16°C
Dew Point: 14°C
Humidity: 88%
Barometer: 1018 hPa
Clouds: Partly cloudy
Visibility: 6 miles , 10 km
Cloud details: Mostly cloudy 488 m
Partly cloudy 640 m
2018/06/20 04:50 EGXT 200450Z AUTO 24013KT 9999 BKN016/// SCT021/// 16/14 Q1018
 
EGYH - Holbeach (aut), United Kingdom
Distance from station: N 27mi, 44km
Updated: 19/06/2018 15:50
NOT Current
Mostly cloudy
Mostly cloudy
 Wind from WSW
Wind: WSW 21 mph , 33 km/h
Temperature: 23°C
Dew Point: 16°C
Humidity: 65%
Barometer: 1020 hPa
Clouds: Mostly cloudy
Visibility: 6 miles , 10 km
Cloud details: Few Clouds 610 m
Mostly cloudy 1219 m
2018/06/19 14:50 EGYH 191450Z 24018KT 9999 FEW020 BKN040 23/16 Q1020 BLU
EGSS - Stansted Airport, United Kingdom
Distance from station: SE 11mi, 18km
Updated: 20/06/2018 06:20
Overcast
Overcast
 Wind from SW
Wind: SW 15 mph , 24 km/h
Temperature: 16°C
Dew Point: 15°C
Humidity: 94%
Barometer: 1020 hPa
Clouds: Overcast
Visibility: 4 miles , 6 km
Cloud details: Overcast 91 m
2018/06/20 05:20 EGSS 200520Z AUTO 22013KT 6000 OVC003 16/15 Q1020
 
EGGW - Luton Airport, United Kingdom
Distance from station: WSW 19mi, 31km
Updated: 20/06/2018 06:20
Mist, Overcast
Mist, Overcast
 Wind from SW
Wind: SW 12 mph , 19 km/h
Temperature: 15°C
Dew Point: 14°C
Humidity: 94%
Barometer: 1020 hPa
Summary: Mist
Clouds: Overcast
Visibility: 1 mile , 1 km
Cloud details: Overcast 30 m
2018/06/20 05:20 EGGW 200520Z AUTO 22010KT 1100 R26/0900 BR OVC001 15/14 Q1020
EGLL - London/Heathrow, United Kingdom
Distance from station: SSW 41mi, 66km
Updated: 20/06/2018 06:20
Mist, Overcast
Mist, Overcast
 Wind from SSW
Wind: SSW 8 mph , 13 km/h
Temperature: 15°C
Dew Point: 15°C
Humidity: 100%
Barometer: 1021 hPa
Summary: Mist
Clouds: Overcast
Visibility: 1 mile , 2 km
Cloud details: Mostly cloudy 61 m
Overcast 183 m
2018/06/20 05:20 EGLL 200520Z AUTO 21007KT 200V260 2400 BR BKN002 OVC006 15/15 Q1021 BECMG 5000 BKN004
 
EGKK - London/Gatwick A, United Kingdom
Distance from station: S 60mi, 97km
Updated: 20/06/2018 06:20
Mist, Mostly cloudy
Mist, Mostly cloudy
 Wind from SSW
Wind: SSW 8 mph , 13 km/h
Temperature: 15°C
Dew Point: 15°C
Humidity: 100%
Barometer: 1021 hPa
Summary: Mist
Clouds: Mostly cloudy
Visibility: 2 miles , 4 km
Cloud details: Mostly cloudy 91 m
2018/06/20 05:20 EGKK 200520Z 21007KT 180V240 3800 BR BKN003 15/15 Q1021
EGUY - Wyton Raf, United Kingdom
Distance from station: SW 11mi, 18km
Updated: 04/10/2015 09:50
NOT Current
Haze, Clear
Haze, Clear
 Wind from SSE
Wind: SSE 2 mph , 4 km/h
Temperature: 11°C
Dew Point: 7°C
Humidity: 77%
Barometer: 1014 hPa
Summary: Haze
Clouds: Clear
Visibility: 4 miles , 6 km
2015/10/04 08:50 EGUY 040850Z 15002KT 6000 HZ SKC 11/07 Q1014 WHT

Met Office METAR data link, decoding METAR data code.